Time;durP1;ratioP1;P1;durP2;ratioP2;P2;SDS_P1;SDS_P2;PMS_P1;PMS_P2;Temp;Humidity;BMP_temperature;BMP_pressure;BME280_temperature;BME280_humidity;BME280_pressure;Samples;Min_cycle;Max_cycle;Signal;HPM_P1;HPM_P2
2023/11/23 00:00:10;;;;;;;9.27;3.72;;;;;;;;;;5053541;28;20721;-59
2023/11/23 00:02:35;;;;;;;8.10;3.47;;;;;;;;;;5053124;28;20017;-57
2023/11/23 00:05:00;;;;;;;6.50;3.17;;;;;;;;;;5061620;28;20400;-58
2023/11/23 00:07:26;;;;;;;8.37;3.70;;;;;;;;;;5053709;28;20447;-58
2023/11/23 00:09:51;;;;;;;7.50;3.05;;;;;;;;;;5051721;28;20044;-59
2023/11/23 00:12:18;;;;;;;7.78;3.38;;;;;;;;;;5051509;28;20059;-58
2023/11/23 00:14:43;;;;;;;7.93;5.97;;;;;;;;;;5060063;28;20067;-60
2023/11/23 00:17:09;;;;;;;7.63;3.10;;;;;;;;;;5054763;28;20021;-58
2023/11/23 00:19:34;;;;;;;7.72;3.67;;;;;;;;;;5049442;28;20033;-59
2023/11/23 00:21:59;;;;;;;7.23;3.30;;;;;;;;;;5052941;28;20624;-59
2023/11/23 00:24:24;;;;;;;8.15;3.30;;;;;;;;;;5052486;28;20024;-59
2023/11/23 00:26:51;;;;;;;7.13;3.40;;;;;;;;;;5054155;28;20033;-59
2023/11/23 00:29:16;;;;;;;8.05;3.25;;;;;;;;;;5060176;28;20074;-59
2023/11/23 00:31:41;;;;;;;6.43;2.87;;;;;;;;;;5070124;28;20109;-59
2023/11/23 00:34:06;;;;;;;7.77;3.10;;;;;;;;;;5064617;28;20013;-59
2023/11/23 00:36:32;;;;;;;7.17;2.70;;;;;;;;;;5052317;28;20028;-57
2023/11/23 00:38:57;;;;;;;6.45;2.63;;;;;;;;;;5052163;28;20036;-59
2023/11/23 00:41:23;;;;;;;6.70;2.80;;;;;;;;;;5050105;28;20029;-58
2023/11/23 00:43:48;;;;;;;6.50;2.60;;;;;;;;;;5046349;28;20562;-60
2023/11/23 00:46:13;;;;;;;8.00;2.50;;;;;;;;;;5054539;28;20021;-60
2023/11/23 00:48:38;;;;;;;6.83;2.77;;;;;;;;;;5050990;28;20021;-57
2023/11/23 00:51:03;;;;;;;7.47;2.77;;;;;;;;;;5053879;28;20018;-58
2023/11/23 00:53:29;;;;;;;5.88;2.80;;;;;;;;;;5056281;28;20116;-60
2023/11/23 00:55:57;;;;;;;5.90;2.60;;;;;;;;;;5054716;28;20020;-57
2023/11/23 00:58:22;;;;;;;6.72;2.60;;;;;;;;;;5059138;28;20031;-58
2023/11/23 01:00:47;;;;;;;6.47;2.50;;;;;;;;;;5058891;28;20016;-58
2023/11/23 01:03:13;;;;;;;6.05;2.47;;;;;;;;;;5061197;28;20358;-58
2023/11/23 01:05:38;;;;;;;6.03;2.70;;;;;;;;;;5060555;28;20388;-58
2023/11/23 01:08:05;;;;;;;6.97;2.53;;;;;;;;;;5052860;28;20025;-57
2023/11/23 01:10:30;;;;;;;5.22;2.35;;;;;;;;;;5047819;28;20694;-59
2023/11/23 01:12:56;;;;;;;6.50;2.65;;;;;;;;;;5054082;28;20029;-60
2023/11/23 01:15:21;;;;;;;5.45;2.05;;;;;;;;;;5054905;28;20040;-57
2023/11/23 01:17:46;;;;;;;5.80;2.23;;;;;;;;;;5058480;28;20075;-59
2023/11/23 01:20:11;;;;;;;5.80;2.10;;;;;;;;;;5056093;28;20501;-59
2023/11/23 01:22:36;;;;;;;5.67;2.37;;;;;;;;;;5055580;28;20432;-58
2023/11/23 01:25:06;;;;;;;6.43;2.20;;;;;;;;;;5051400;28;20032;-59
2023/11/23 01:27:31;;;;;;;5.90;2.47;;;;;;;;;;5051879;28;20025;-58
2023/11/23 01:29:58;;;;;;;6.00;2.38;;;;;;;;;;5051300;28;20416;-60
2023/11/23 01:32:23;;;;;;;6.32;2.30;;;;;;;;;;5063826;28;20056;-59
2023/11/23 01:34:48;;;;;;;5.32;2.08;;;;;;;;;;5069538;28;20028;-59
2023/11/23 01:37:13;;;;;;;5.83;2.53;;;;;;;;;;5068286;28;20076;-61
2023/11/23 01:39:39;;;;;;;6.83;2.70;;;;;;;;;;5067619;28;20048;-58
2023/11/23 01:42:04;;;;;;;6.90;2.40;;;;;;;;;;5061554;28;20016;-58
2023/11/23 01:44:29;;;;;;;5.10;2.40;;;;;;;;;;5051046;28;20047;-57
2023/11/23 01:46:54;;;;;;;5.63;2.30;;;;;;;;;;5050836;28;20033;-59
2023/11/23 01:49:19;;;;;;;4.70;2.20;;;;;;;;;;5050435;28;20032;-59
2023/11/23 01:51:45;;;;;;;5.33;2.20;;;;;;;;;;5049269;28;20013;-59
2023/11/23 01:54:10;;;;;;;5.78;2.13;;;;;;;;;;5052138;28;20459;-59
2023/11/23 01:56:35;;;;;;;5.40;2.23;;;;;;;;;;5039182;28;20318;-59
2023/11/23 01:59:03;;;;;;;5.27;1.93;;;;;;;;;;5051813;28;20021;-58
2023/11/23 02:01:28;;;;;;;4.65;1.83;;;;;;;;;;5055997;28;20029;-59
2023/11/23 02:03:54;;;;;;;5.30;1.90;;;;;;;;;;5057893;28;20122;-59
2023/11/23 02:06:20;;;;;;;4.70;1.80;;;;;;;;;;5048719;28;20032;-59
2023/11/23 02:08:46;;;;;;;5.07;1.80;;;;;;;;;;5050659;28;20013;-60
2023/11/23 02:11:11;;;;;;;4.75;1.90;;;;;;;;;;5053110;28;20720;-59
2023/11/23 02:13:37;;;;;;;5.03;1.93;;;;;;;;;;5057997;28;20020;-60
2023/11/23 02:16:03;;;;;;;4.90;1.77;;;;;;;;;;5062873;28;20481;-59
2023/11/23 02:18:34;;;;;;;5.68;2.08;;;;;;;;;;5054768;28;20035;-59
2023/11/23 02:20:59;;;;;;;4.38;1.88;;;;;;;;;;5048937;28;20047;-59
2023/11/23 02:23:25;;;;;;;4.83;1.60;;;;;;;;;;5049607;28;20492;-58
2023/11/23 02:25:50;;;;;;;4.45;1.83;;;;;;;;;;5050093;28;20029;-58
2023/11/23 02:28:15;;;;;;;5.43;2.17;;;;;;;;;;5050826;28;20025;-58
2023/11/23 02:30:41;;;;;;;5.07;2.00;;;;;;;;;;5049063;28;20111;-57
2023/11/23 02:33:08;;;;;;;4.87;1.90;;;;;;;;;;5050464;28;20082;-61
2023/11/23 02:35:33;;;;;;;4.72;1.90;;;;;;;;;;5049930;28;20033;-58
2023/11/23 02:37:58;;;;;;;4.88;1.90;;;;;;;;;;5051673;28;20470;-59
2023/11/23 02:40:23;;;;;;;5.15;2.03;;;;;;;;;;5050620;28;20025;-57
2023/11/23 02:42:49;;;;;;;5.80;1.90;;;;;;;;;;5051977;28;20021;-57
2023/11/23 02:45:14;;;;;;;5.13;1.97;;;;;;;;;;5052587;28;20025;-57
2023/11/23 02:47:39;;;;;;;5.13;1.90;;;;;;;;;;5054550;28;20037;-58
2023/11/23 02:50:04;;;;;;;5.70;2.10;;;;;;;;;;5054628;28;20017;-60
2023/11/23 02:52:30;;;;;;;6.03;1.90;;;;;;;;;;5053559;28;20120;-59
2023/11/23 02:54:55;;;;;;;4.30;1.80;;;;;;;;;;5055017;28;20075;-58
2023/11/23 02:57:20;;;;;;;5.73;1.83;;;;;;;;;;5052404;28;20397;-58
2023/11/23 02:59:46;;;;;;;4.90;1.83;;;;;;;;;;5054799;28;20032;-58
2023/11/23 03:02:11;;;;;;;6.20;2.87;;;;;;;;;;5053687;28;20039;-58
2023/11/23 03:04:36;;;;;;;4.03;1.70;;;;;;;;;;5055157;28;20091;-57
2023/11/23 03:07:01;;;;;;;4.33;1.77;;;;;;;;;;5056505;28;20039;-59
2023/11/23 03:09:26;;;;;;;5.33;1.90;;;;;;;;;;5062432;28;20028;-59
2023/11/23 03:11:52;;;;;;;4.28;2.28;;;;;;;;;;5065700;28;20491;-60
2023/11/23 03:14:17;;;;;;;4.63;1.77;;;;;;;;;;5056383;28;20120;-58
2023/11/23 03:16:44;;;;;;;5.13;1.80;;;;;;;;;;5055907;28;20092;-58
2023/11/23 03:19:09;;;;;;;4.40;1.70;;;;;;;;;;5054606;28;20092;-61
2023/11/23 03:21:34;;;;;;;3.80;1.40;;;;;;;;;;5061801;28;20063;-59
2023/11/23 03:23:59;;;;;;;5.50;1.90;;;;;;;;;;5056954;28;20611;-59
2023/11/23 03:26:24;;;;;;;4.83;2.10;;;;;;;;;;5065908;28;20040;-57
2023/11/23 03:28:50;;;;;;;5.30;1.97;;;;;;;;;;5052958;28;20400;-60
2023/11/23 03:31:15;;;;;;;5.07;1.73;;;;;;;;;;5051712;28;20021;-58
2023/11/23 03:33:41;;;;;;;5.63;1.90;;;;;;;;;;5052523;28;20785;-60
2023/11/23 03:36:06;;;;;;;5.43;2.10;;;;;;;;;;5053825;28;20025;-59
2023/11/23 03:38:31;;;;;;;4.45;1.83;;;;;;;;;;5053696;28;20070;-58
2023/11/23 03:40:57;;;;;;;6.37;1.93;;;;;;;;;;5053267;28;20473;-57
2023/11/23 03:43:23;;;;;;;5.95;1.90;;;;;;;;;;5052484;28;20401;-57
2023/11/23 03:45:48;;;;;;;4.47;1.80;;;;;;;;;;5052453;28;20036;-59
2023/11/23 03:48:13;;;;;;;4.63;1.73;;;;;;;;;;5054321;28;20017;-59
2023/11/23 03:50:38;;;;;;;5.27;2.03;;;;;;;;;;5052172;28;20429;-59
2023/11/23 03:53:04;;;;;;;4.43;1.90;;;;;;;;;;5053319;28;20024;-58
2023/11/23 03:55:29;;;;;;;4.20;1.58;;;;;;;;;;5055569;28;20017;-59
2023/11/23 03:57:54;;;;;;;5.57;1.87;;;;;;;;;;5056744;28;20045;-60
2023/11/23 04:00:21;;;;;;;4.97;2.47;;;;;;;;;;5054133;28;20017;-57
2023/11/23 04:02:46;;;;;;;5.18;3.08;;;;;;;;;;5054074;28;20024;-58
2023/11/23 04:05:14;;;;;;;5.35;1.95;;;;;;;;;;5057176;28;20768;-58
2023/11/23 04:07:40;;;;;;;6.32;3.08;;;;;;;;;;5062030;28;20020;-57
2023/11/23 04:10:06;;;;;;;4.30;1.70;;;;;;;;;;5059727;28;20029;-58
2023/11/23 04:12:32;;;;;;;5.70;1.95;;;;;;;;;;5059893;28;20040;-58
2023/11/23 04:14:57;;;;;;;4.95;2.17;;;;;;;;;;5059140;28;20029;-59
2023/11/23 04:17:22;;;;;;;4.60;1.70;;;;;;;;;;5055747;28;20595;-58
2023/11/23 04:19:48;;;;;;;5.37;2.00;;;;;;;;;;5050824;28;20028;-57
2023/11/23 04:22:13;;;;;;;4.72;1.88;;;;;;;;;;5051766;28;20100;-60
2023/11/23 04:24:39;;;;;;;5.70;1.90;;;;;;;;;;5052574;28;20108;-58
2023/11/23 04:27:05;;;;;;;5.85;1.70;;;;;;;;;;5052723;28;20025;-59
2023/11/23 04:29:30;;;;;;;4.93;1.97;;;;;;;;;;5052975;28;20025;-59
2023/11/23 04:31:55;;;;;;;5.27;3.87;;;;;;;;;;5052269;28;20017;-59
2023/11/23 04:34:21;;;;;;;5.32;2.38;;;;;;;;;;5056444;28;20517;-58
2023/11/23 04:36:46;;;;;;;5.75;3.25;;;;;;;;;;5045679;28;20080;-59
2023/11/23 04:39:12;;;;;;;6.17;1.90;;;;;;;;;;5061349;28;20020;-58
2023/11/23 04:41:38;;;;;;;5.10;2.60;;;;;;;;;;5049008;28;20021;-59
2023/11/23 04:44:03;;;;;;;6.53;2.60;;;;;;;;;;5045886;28;20431;-59
2023/11/23 04:46:29;;;;;;;6.17;3.77;;;;;;;;;;5032459;28;20979;-59
2023/11/23 04:48:54;;;;;;;4.70;3.03;;;;;;;;;;5045606;28;20021;-58
2023/11/23 04:51:19;;;;;;;7.73;6.10;;;;;;;;;;5051738;28;20162;-58
2023/11/23 04:53:44;;;;;;;5.17;3.30;;;;;;;;;;5051155;28;20020;-60
2023/11/23 04:56:11;;;;;;;4.60;1.77;;;;;;;;;;5052013;28;20036;-59
2023/11/23 04:58:36;;;;;;;6.95;1.90;;;;;;;;;;5052156;28;20025;-57
2023/11/23 05:01:01;;;;;;;6.33;2.87;;;;;;;;;;5051867;28;20585;-58
2023/11/23 05:03:30;;;;;;;4.20;1.50;;;;;;;;;;5047363;28;20028;-58
2023/11/23 05:05:55;;;;;;;11.43;10.32;;;;;;;;;;5049272;28;20033;-59
2023/11/23 05:08:20;;;;;;;4.63;2.17;;;;;;;;;;5051678;28;20013;-58
2023/11/23 05:10:46;;;;;;;4.87;1.97;;;;;;;;;;5051696;28;20028;-60
2023/11/23 05:13:12;;;;;;;5.20;2.00;;;;;;;;;;5052133;28;20059;-60
2023/11/23 05:15:37;;;;;;;4.45;1.60;;;;;;;;;;5051620;28;20451;-58
2023/11/23 05:18:02;;;;;;;4.93;1.47;;;;;;;;;;5048342;28;20032;-58
2023/11/23 05:20:28;;;;;;;5.70;1.80;;;;;;;;;;5051887;28;20086;-57
2023/11/23 05:22:53;;;;;;;4.72;2.00;;;;;;;;;;5049669;28;20033;-59
2023/11/23 05:25:19;;;;;;;4.97;1.83;;;;;;;;;;5051666;28;20029;-59
2023/11/23 05:27:44;;;;;;;5.88;2.85;;;;;;;;;;5050203;28;20021;-58
2023/11/23 05:30:09;;;;;;;17.90;16.73;;;;;;;;;;5051254;28;20096;-58
2023/11/23 05:32:35;;;;;;;14.13;13.07;;;;;;;;;;5050679;28;20079;-58
2023/11/23 05:35:00;;;;;;;9.97;9.17;;;;;;;;;;5049345;28;20025;-60
2023/11/23 05:37:25;;;;;;;20.20;18.88;;;;;;;;;;5052602;28;20080;-59
2023/11/23 05:39:50;;;;;;;7.33;6.63;;;;;;;;;;5050325;28;20021;-59
2023/11/23 05:42:16;;;;;;;5.72;2.33;;;;;;;;;;5050817;28;20025;-59
2023/11/23 05:44:41;;;;;;;5.80;4.30;;;;;;;;;;5051365;28;20553;-57
2023/11/23 05:47:06;;;;;;;5.57;3.60;;;;;;;;;;5050383;28;20032;-60
2023/11/23 05:49:31;;;;;;;12.90;11.77;;;;;;;;;;5050679;28;20021;-60
2023/11/23 05:51:56;;;;;;;5.90;2.37;;;;;;;;;;5049718;28;20039;-59
2023/11/23 05:54:22;;;;;;;4.80;1.87;;;;;;;;;;5051269;28;20096;-60
2023/11/23 05:56:48;;;;;;;4.80;1.87;;;;;;;;;;5050196;28;20024;-58
2023/11/23 05:59:13;;;;;;;6.05;3.47;;;;;;;;;;5050530;28;20538;-59
2023/11/23 06:01:38;;;;;;;4.17;1.97;;;;;;;;;;5048459;28;20047;-59
2023/11/23 06:04:03;;;;;;;6.53;4.20;;;;;;;;;;5048076;28;20025;-59
2023/11/23 06:06:29;;;;;;;6.65;2.67;;;;;;;;;;5050270;28;20040;-59
2023/11/23 06:08:56;;;;;;;11.13;10.10;;;;;;;;;;5056194;28;20029;-57
2023/11/23 06:11:21;;;;;;;5.55;3.80;;;;;;;;;;5045154;28;20408;-59
2023/11/23 06:13:46;;;;;;;5.20;2.00;;;;;;;;;;5036213;28;20045;-59
2023/11/23 06:16:12;;;;;;;6.35;2.60;;;;;;;;;;5047669;28;20029;-58
2023/11/23 06:18:37;;;;;;;4.65;2.25;;;;;;;;;;5044882;28;20031;-59
2023/11/23 06:21:02;;;;;;;6.30;2.05;;;;;;;;;;5049064;28;20936;-58
2023/11/23 06:23:30;;;;;;;4.93;2.33;;;;;;;;;;5042262;28;20025;-59
2023/11/23 06:25:56;;;;;;;5.00;1.88;;;;;;;;;;5045488;28;20029;-59
2023/11/23 06:28:21;;;;;;;8.05;2.45;;;;;;;;;;5044463;28;20032;-59
2023/11/23 06:30:46;;;;;;;5.57;2.97;;;;;;;;;;5044031;28;20115;-58
2023/11/23 06:33:12;;;;;;;10.35;9.43;;;;;;;;;;5049199;28;20020;-61
2023/11/23 06:35:37;;;;;;;5.97;3.17;;;;;;;;;;5057555;28;20060;-58
2023/11/23 06:38:03;;;;;;;14.57;13.52;;;;;;;;;;5063134;28;20055;-61
2023/11/23 06:40:28;;;;;;;6.53;5.07;;;;;;;;;;5055050;28;20687;-57
2023/11/23 06:42:53;;;;;;;5.82;5.03;;;;;;;;;;5051345;28;20013;-57
2023/11/23 06:45:19;;;;;;;7.20;5.60;;;;;;;;;;5036921;28;20145;-58
2023/11/23 06:47:44;;;;;;;7.53;6.80;;;;;;;;;;5046158;28;20020;-59
2023/11/23 06:50:09;;;;;;;12.13;11.17;;;;;;;;;;5043543;28;20021;-60
2023/11/23 06:52:34;;;;;;;6.70;5.10;;;;;;;;;;5049838;28;20024;-58
2023/11/23 06:55:01;;;;;;;6.93;2.30;;;;;;;;;;5051954;28;20052;-59
2023/11/23 06:57:27;;;;;;;6.32;2.10;;;;;;;;;;5040580;28;20083;-60
2023/11/23 06:59:52;;;;;;;5.40;2.22;;;;;;;;;;5052996;28;20008;-57
2023/11/23 07:02:17;;;;;;;5.45;2.53;;;;;;;;;;5045165;28;20029;-59
2023/11/23 07:04:43;;;;;;;6.73;3.60;;;;;;;;;;5049678;28;20068;-59
2023/11/23 07:07:08;;;;;;;6.50;2.97;;;;;;;;;;5051571;28;20079;-59
2023/11/23 07:09:33;;;;;;;8.13;6.37;;;;;;;;;;5055874;28;20013;-60
2023/11/23 07:11:58;;;;;;;18.43;17.00;;;;;;;;;;5060473;28;20013;-59
2023/11/23 07:14:23;;;;;;;16.93;14.90;;;;;;;;;;5063437;28;20024;-59
2023/11/23 07:16:51;;;;;;;6.30;3.33;;;;;;;;;;5058686;28;20032;-58
2023/11/23 07:19:17;;;;;;;7.22;3.75;;;;;;;;;;5057272;28;20682;-57
2023/11/23 07:21:43;;;;;;;9.23;8.32;;;;;;;;;;5065786;28;20025;-59
2023/11/23 07:24:08;;;;;;;8.95;7.75;;;;;;;;;;5063512;28;20017;-58
2023/11/23 07:26:34;;;;;;;6.33;3.03;;;;;;;;;;5060960;28;20036;-61
2023/11/23 07:28:59;;;;;;;8.17;6.60;;;;;;;;;;5055720;28;20033;-57
2023/11/23 07:31:24;;;;;;;6.07;3.43;;;;;;;;;;5066874;28;20039;-58
2023/11/23 07:33:49;;;;;;;7.00;3.33;;;;;;;;;;5063687;28;20075;-61
2023/11/23 07:36:14;;;;;;;20.35;18.83;;;;;;;;;;5066713;28;20096;-57
2023/11/23 07:38:41;;;;;;;9.17;4.53;;;;;;;;;;5073034;28;20484;-58
2023/11/23 07:41:08;;;;;;;7.35;5.05;;;;;;;;;;5062188;28;20090;-61
2023/11/23 07:43:34;;;;;;;12.10;10.98;;;;;;;;;;5052563;28;20408;-58
2023/11/23 07:45:59;;;;;;;7.50;3.63;;;;;;;;;;5051269;28;20044;-58
2023/11/23 07:48:26;;;;;;;6.22;4.32;;;;;;;;;;5055582;28;20032;-59
2023/11/23 07:50:51;;;;;;;6.35;2.25;;;;;;;;;;5050294;28;20055;-59
2023/11/23 07:53:17;;;;;;;7.17;2.47;;;;;;;;;;5063304;28;20143;-59
2023/11/23 07:55:43;;;;;;;6.15;2.33;;;;;;;;;;5059080;28;20032;-59
2023/11/23 07:58:08;;;;;;;7.68;5.85;;;;;;;;;;5050158;28;20031;-58
2023/11/23 08:00:37;;;;;;;5.93;2.37;;;;;;;;;;5041493;28;20028;-56
2023/11/23 08:03:02;;;;;;;5.07;2.40;;;;;;;;;;5048359;28;20040;-58
2023/11/23 08:05:27;;;;;;;6.00;2.73;;;;;;;;;;5047485;28;20033;-59
2023/11/23 08:07:54;;;;;;;6.57;2.73;;;;;;;;;;5050288;28;20150;-59
2023/11/23 08:10:19;;;;;;;6.15;5.07;;;;;;;;;;5046704;28;20379;-59
2023/11/23 08:12:45;;;;;;;12.25;11.07;;;;;;;;;;5031826;28;20033;-58
2023/11/23 08:15:10;;;;;;;7.00;5.20;;;;;;;;;;5045997;28;20029;-59
2023/11/23 08:17:36;;;;;;;6.00;2.70;;;;;;;;;;5043671;28;20119;-58
2023/11/23 08:20:01;;;;;;;8.82;7.82;;;;;;;;;;5049475;28;20449;-58
2023/11/23 08:22:26;;;;;;;6.13;2.80;;;;;;;;;;5051289;28;20090;-58
2023/11/23 08:24:51;;;;;;;24.43;22.70;;;;;;;;;;5045601;28;20116;-59
2023/11/23 08:27:17;;;;;;;5.73;2.57;;;;;;;;;;5048709;28;20041;-60
2023/11/23 08:29:42;;;;;;;8.47;7.53;;;;;;;;;;5049203;28;20044;-59
2023/11/23 08:32:08;;;;;;;6.43;2.63;;;;;;;;;;5039867;28;20108;-60
2023/11/23 08:34:33;;;;;;;5.65;2.95;;;;;;;;;;5042431;28;20128;-58
2023/11/23 08:36:59;;;;;;;27.88;26.13;;;;;;;;;;5059543;28;20540;-58
2023/11/23 08:39:24;;;;;;;5.37;2.07;;;;;;;;;;5041452;28;20021;-58
2023/11/23 08:41:49;;;;;;;6.70;3.40;;;;;;;;;;5051109;28;20024;-59
2023/11/23 08:44:14;;;;;;;5.87;2.30;;;;;;;;;;5044953;28;20086;-58
2023/11/23 08:46:40;;;;;;;5.90;2.83;;;;;;;;;;5045305;28;20033;-61
2023/11/23 08:49:05;;;;;;;7.25;5.85;;;;;;;;;;5049079;28;20484;-59
2023/11/23 08:51:30;;;;;;;6.23;2.50;;;;;;;;;;5050571;28;20025;-59
2023/11/23 08:53:56;;;;;;;7.93;2.40;;;;;;;;;;5047994;28;20105;-60
2023/11/23 08:56:21;;;;;;;4.47;1.98;;;;;;;;;;5050862;28;20540;-59
2023/11/23 08:58:46;;;;;;;6.30;3.63;;;;;;;;;;5045364;28;20025;-58
2023/11/23 09:01:11;;;;;;;5.10;2.47;;;;;;;;;;5047235;28;20388;-59
2023/11/23 09:03:36;;;;;;;27.83;26.20;;;;;;;;;;5049700;28;20025;-59
2023/11/23 09:06:03;;;;;;;7.37;3.93;;;;;;;;;;5046180;28;20108;-57
2023/11/23 09:08:29;;;;;;;5.13;1.90;;;;;;;;;;5046508;28;20029;-59
2023/11/23 09:10:54;;;;;;;6.97;6.22;;;;;;;;;;5047827;28;20017;-58
2023/11/23 09:13:19;;;;;;;5.68;3.35;;;;;;;;;;5047145;28;20099;-57
2023/11/23 09:15:45;;;;;;;15.13;13.98;;;;;;;;;;5048150;28;20045;-59
2023/11/23 09:18:10;;;;;;;9.68;8.77;;;;;;;;;;5048884;28;20025;-58
2023/11/23 09:20:35;;;;;;;5.63;3.10;;;;;;;;;;5049238;28;20029;-57
2023/11/23 09:23:02;;;;;;;5.07;2.53;;;;;;;;;;5044356;28;20061;-59
2023/11/23 09:25:29;;;;;;;6.47;3.97;;;;;;;;;;5048953;28;20442;-59
2023/11/23 09:27:55;;;;;;;19.33;17.88;;;;;;;;;;5046951;28;20079;-59
2023/11/23 09:30:20;;;;;;;8.27;7.07;;;;;;;;;;5047708;28;20439;-58
2023/11/23 09:32:46;;;;;;;7.93;7.22;;;;;;;;;;5047690;28;20025;-59
2023/11/23 09:35:11;;;;;;;5.70;4.37;;;;;;;;;;5048783;28;20021;-59
2023/11/23 09:37:36;;;;;;;5.37;4.27;;;;;;;;;;5046251;28;20029;-59
2023/11/23 09:40:05;;;;;;;27.40;25.77;;;;;;;;;;5048383;28;20461;-57
2023/11/23 09:42:34;;;;;;;10.48;9.57;;;;;;;;;;5047394;28;20510;-59
2023/11/23 09:45:00;;;;;;;4.90;2.70;;;;;;;;;;5048960;28;20056;-59
2023/11/23 09:47:31;;;;;;;4.55;2.15;;;;;;;;;;5049319;28;20040;-60
2023/11/23 09:49:57;;;;;;;10.73;9.82;;;;;;;;;;5049063;28;20484;-59
2023/11/23 09:52:23;;;;;;;9.65;7.72;;;;;;;;;;5046686;28;20167;-58
2023/11/23 09:54:48;;;;;;;21.77;20.30;;;;;;;;;;5048660;28;20494;-60
2023/11/23 09:57:14;;;;;;;14.17;13.10;;;;;;;;;;5048538;28;20024;-59
2023/11/23 09:59:39;;;;;;;5.00;3.20;;;;;;;;;;5052426;28;20668;-57
2023/11/23 10:02:05;;;;;;;8.03;7.23;;;;;;;;;;5051856;28;20021;-57
2023/11/23 10:04:31;;;;;;;3.88;1.50;;;;;;;;;;5051399;28;20067;-60
2023/11/23 10:06:56;;;;;;;11.17;10.37;;;;;;;;;;5058617;28;20033;-60
2023/11/23 10:09:26;;;;;;;15.27;14.10;;;;;;;;;;5055101;28;20450;-64
2023/11/23 10:11:51;;;;;;;15.63;14.55;;;;;;;;;;5053718;28;20522;-58
2023/11/23 10:14:17;;;;;;;25.55;23.95;;;;;;;;;;5054487;28;20392;-60
2023/11/23 10:16:42;;;;;;;6.13;4.38;;;;;;;;;;5048719;28;20075;-58
2023/11/23 10:19:17;;;;;;;12.57;11.67;;;;;;;;;;5047976;28;20044;-60
2023/11/23 10:21:43;;;;;;;4.35;2.08;;;;;;;;;;5047989;28;20101;-59
2023/11/23 10:24:08;;;;;;;73.50;69.30;;;;;;;;;;5047332;28;20108;-59
2023/11/23 10:26:34;;;;;;;6.13;5.17;;;;;;;;;;5044073;28;20029;-60
2023/11/23 10:28:59;;;;;;;7.22;5.55;;;;;;;;;;5047489;28;20028;-60
2023/11/23 10:31:24;;;;;;;4.63;4.10;;;;;;;;;;5045735;28;20025;-60
2023/11/23 10:33:50;;;;;;;15.68;14.55;;;;;;;;;;5045781;28;20389;-60
2023/11/23 10:36:16;;;;;;;8.40;7.57;;;;;;;;;;5044602;28;20025;-60
2023/11/23 10:38:41;;;;;;;36.10;33.97;;;;;;;;;;5047586;28;20017;-59
2023/11/23 10:41:07;;;;;;;14.33;13.37;;;;;;;;;;5047862;28;20041;-57
2023/11/23 10:43:40;;;;;;;4.63;2.15;;;;;;;;;;5046064;28;20108;-60
2023/11/23 10:46:09;;;;;;;10.57;9.75;;;;;;;;;;5048128;28;20029;-59
2023/11/23 10:48:35;;;;;;;8.60;7.88;;;;;;;;;;5046489;28;20044;-60
2023/11/23 10:51:05;;;;;;;55.17;52.08;;;;;;;;;;5047841;28;20013;-61
2023/11/23 10:53:31;;;;;;;4.38;2.83;;;;;;;;;;5048319;28;20100;-58
2023/11/23 10:56:07;;;;;;;19.10;17.90;;;;;;;;;;5049537;28;20025;-58
2023/11/23 10:58:37;;;;;;;7.45;6.22;;;;;;;;;;5045823;28;20029;-61
2023/11/23 11:01:03;;;;;;;22.88;21.42;;;;;;;;;;5055855;28;20044;-60
2023/11/23 11:03:29;;;;;;;5.85;4.47;;;;;;;;;;5054933;28;20032;-58
2023/11/23 11:05:55;;;;;;;18.63;17.35;;;;;;;;;;5057988;28;20025;-60
2023/11/23 11:08:21;;;;;;;;;;;;;;;;;;5053257;28;20025;-60
2023/11/23 11:10:48;;;;;;;39.17;36.90;;;;;;;;;;5050216;28;20449;-59
2023/11/23 11:13:17;;;;;;;5.68;4.70;;;;;;;;;;5050149;28;20028;-57
2023/11/23 11:15:52;;;;;;;7.30;6.60;;;;;;;;;;5031653;28;20112;-60
2023/11/23 11:18:36;;;;;;;6.55;5.95;;;;;;;;;;5032072;28;20032;-58
2023/11/23 11:21:09;;;;;;;14.85;13.90;;;;;;;;;;5048238;28;20029;-60
2023/11/23 11:23:38;;;;;;;4.65;2.83;;;;;;;;;;5052144;28;20036;-58
2023/11/23 11:26:24;;;;;;;24.08;22.60;;;;;;;;;;5049497;28;20036;-58
2023/11/23 11:28:57;;;;;;;8.82;5.35;;;;;;;;;;5049095;28;20029;-58
2023/11/23 11:31:39;;;;;;;5.18;2.33;;;;;;;;;;5041338;28;20049;-60
2023/11/23 11:34:12;;;;;;;7.20;6.45;;;;;;;;;;5051254;28;20044;-58
2023/11/23 11:36:37;;;;;;;7.75;6.68;;;;;;;;;;5051166;28;20079;-63
2023/11/23 11:39:05;;;;;;;57.67;54.45;;;;;;;;;;5051546;28;20033;-59
2023/11/23 11:41:34;;;;;;;7.18;6.47;;;;;;;;;;5049579;28;20093;-59
2023/11/23 11:44:01;;;;;;;16.77;15.23;;;;;;;;;;5051089;28;20404;-59
2023/11/23 11:46:29;;;;;;;41.35;34.33;;;;;;;;;;5046794;28;20445;-59
2023/11/23 11:48:57;;;;;;;50.85;48.05;;;;;;;;;;5050085;28;20025;-58
2023/11/23 11:51:26;;;;;;;7.00;6.30;;;;;;;;;;5050009;28;20602;-58
2023/11/23 11:53:53;;;;;;;18.45;17.05;;;;;;;;;;5050661;28;20099;-61
2023/11/23 11:56:18;;;;;;;14.70;13.70;;;;;;;;;;5047236;28;20032;-60
2023/11/23 11:58:44;;;;;;;13.13;12.02;;;;;;;;;;5048391;28;20040;-58
2023/11/23 12:01:10;;;;;;;4.95;2.97;;;;;;;;;;5037745;28;20493;-60
2023/11/23 12:03:35;;;;;;;15.32;14.25;;;;;;;;;;5030826;28;20026;-59
2023/11/23 12:06:01;;;;;;;22.10;20.80;;;;;;;;;;5048802;28;20554;-58
2023/11/23 12:08:33;;;;;;;5.90;5.00;;;;;;;;;;5048786;28;20025;-58
2023/11/23 12:10:58;;;;;;;18.17;16.90;;;;;;;;;;5047748;28;20031;-59
2023/11/23 12:13:23;;;;;;;4.77;2.60;;;;;;;;;;5047464;28;20112;-58
2023/11/23 12:15:51;;;;;;;11.87;10.77;;;;;;;;;;5047586;28;20113;-59
2023/11/23 12:18:16;;;;;;;5.45;2.75;;;;;;;;;;5049721;28;20051;-58
2023/11/23 12:20:42;;;;;;;61.90;58.08;;;;;;;;;;5049396;28;20724;-59
2023/11/23 12:23:08;;;;;;;12.53;10.43;;;;;;;;;;5048345;28;20023;-59
2023/11/23 12:25:34;;;;;;;5.53;2.90;;;;;;;;;;5048202;28;20120;-58
2023/11/23 12:27:59;;;;;;;162.90;152.57;;;;;;;;;;5048813;28;20109;-59
2023/11/23 12:30:25;;;;;;;5.88;4.63;;;;;;;;;;5049394;28;20025;-58
2023/11/23 12:32:51;;;;;;;26.45;24.85;;;;;;;;;;5049930;28;20397;-58
2023/11/23 12:35:16;;;;;;;5.93;5.28;;;;;;;;;;5050399;28;20021;-58
2023/11/23 12:37:41;;;;;;;13.10;12.03;;;;;;;;;;5047526;28;20055;-60
2023/11/23 12:40:10;;;;;;;27.90;26.02;;;;;;;;;;5048509;28;20029;-59
2023/11/23 12:42:35;;;;;;;65.18;57.10;;;;;;;;;;5050079;28;20029;-58
2023/11/23 12:45:02;;;;;;;30.00;28.02;;;;;;;;;;5048430;28;20031;-58
2023/11/23 12:47:27;;;;;;;;;;;;;;;;;;5048949;28;20033;-60
2023/11/23 12:49:52;;;;;;;13.55;12.50;;;;;;;;;;5049717;28;19904;-58
2023/11/23 12:52:18;;;;;;;5.70;4.47;;;;;;;;;;5050007;28;20686;-59
2023/11/23 12:54:43;;;;;;;5.00;4.00;;;;;;;;;;5048887;28;20040;-58
2023/11/23 12:57:09;;;;;;;5.53;3.57;;;;;;;;;;5049726;28;20021;-58
2023/11/23 12:59:35;;;;;;;6.22;4.50;;;;;;;;;;5045973;28;20017;-57
2023/11/23 13:02:00;;;;;;;53.05;50.03;;;;;;;;;;5049659;28;20031;-58
2023/11/23 13:04:29;;;;;;;48.70;45.90;;;;;;;;;;5050967;28;20154;-62
2023/11/23 13:06:57;;;;;;;6.43;5.20;;;;;;;;;;5052154;28;20029;-57
2023/11/23 13:09:23;;;;;;;12.27;10.48;;;;;;;;;;5050230;28;20021;-59
2023/11/23 13:11:48;;;;;;;5.57;2.58;;;;;;;;;;5055238;28;20040;-59
2023/11/23 13:14:15;;;;;;;6.15;5.53;;;;;;;;;;5057459;28;20036;-59
2023/11/23 13:16:40;;;;;;;35.15;32.75;;;;;;;;;;5057178;28;20028;-58
2023/11/23 13:19:07;;;;;;;20.77;19.42;;;;;;;;;;5048916;28;20443;-60
2023/11/23 13:21:32;;;;;;;15.55;14.35;;;;;;;;;;5047479;28;20048;-59
2023/11/23 13:23:58;;;;;;;54.23;51.13;;;;;;;;;;5050966;28;20029;-59
2023/11/23 13:26:25;;;;;;;14.02;7.43;;;;;;;;;;5049434;28;20124;-58
2023/11/23 13:28:57;;;;;;;24.50;22.90;;;;;;;;;;5050635;28;20021;-59
2023/11/23 13:31:22;;;;;;;10.07;9.18;;;;;;;;;;5048562;28;20044;-57
2023/11/23 13:33:47;;;;;;;12.37;11.37;;;;;;;;;;5046078;28;20043;-58
2023/11/23 13:36:13;;;;;;;14.85;13.43;;;;;;;;;;5047871;28;20017;-59
2023/11/23 13:38:38;;;;;;;10.03;9.03;;;;;;;;;;5045535;28;20036;-58
2023/11/23 13:41:04;;;;;;;7.05;2.40;;;;;;;;;;5047836;28;20444;-58
2023/11/23 13:43:30;;;;;;;7.05;6.13;;;;;;;;;;5039957;28;20496;-59
2023/11/23 13:45:55;;;;;;;6.60;3.50;;;;;;;;;;5037142;28;20030;-60
2023/11/23 13:48:20;;;;;;;13.77;12.47;;;;;;;;;;5029250;28;20468;-58
2023/11/23 13:50:45;;;;;;;21.73;20.27;;;;;;;;;;5047463;28;20017;-58
2023/11/23 13:53:11;;;;;;;7.13;5.60;;;;;;;;;;5047077;28;20017;-58
2023/11/23 13:55:36;;;;;;;38.67;36.50;;;;;;;;;;5048300;28;20434;-59
2023/11/23 13:58:02;;;;;;;19.92;18.58;;;;;;;;;;5048266;28;20051;-59
2023/11/23 14:00:27;;;;;;;77.15;69.93;;;;;;;;;;5047357;28;20060;-59
2023/11/23 14:02:53;;;;;;;18.25;16.60;;;;;;;;;;5044104;28;20024;-58
2023/11/23 14:05:18;;;;;;;25.88;24.25;;;;;;;;;;5048324;28;20027;-57
2023/11/23 14:07:44;;;;;;;31.13;29.03;;;;;;;;;;5046247;28;20017;-58
2023/11/23 14:10:09;;;;;;;7.57;3.57;;;;;;;;;;5047261;28;20548;-60
2023/11/23 14:12:34;;;;;;;12.57;11.48;;;;;;;;;;5051472;28;20429;-59
2023/11/23 14:14:59;;;;;;;6.33;4.00;;;;;;;;;;5054712;28;20024;-60
2023/11/23 14:17:26;;;;;;;7.33;5.23;;;;;;;;;;5048417;28;20013;-58
2023/11/23 14:19:51;;;;;;;;;;;;;;;;;;5044157;28;20029;-59
2023/11/23 14:22:16;;;;;;;9.82;8.75;;;;;;;;;;5033987;28;19917;-57
2023/11/23 14:24:42;;;;;;;15.37;14.20;;;;;;;;;;5040514;28;20472;-60
2023/11/23 14:27:08;;;;;;;14.47;13.30;;;;;;;;;;5057226;28;20072;-57
2023/11/23 14:29:33;;;;;;;18.85;17.58;;;;;;;;;;5045212;28;20029;-59